sensor_id;sensor_type;location;lat;lon;timestamp;P1;durP1;ratioP1;P2;durP2;ratioP2
19733;SDS011;10018;51.230;7.860;2023-11-19T00:00:36;4.03;;;1.93;;
19733;SDS011;10018;51.230;7.860;2023-11-19T00:03:02;1.50;;;0.90;;
19733;SDS011;10018;51.230;7.860;2023-11-19T00:05:30;2.70;;;1.10;;
19733;SDS011;10018;51.230;7.860;2023-11-19T00:07:58;1.67;;;0.90;;
19733;SDS011;10018;51.230;7.860;2023-11-19T00:10:29;1.37;;;1.00;;
19733;SDS011;10018;51.230;7.860;2023-11-19T00:12:55;2.17;;;0.93;;
19733;SDS011;10018;51.230;7.860;2023-11-19T00:15:23;2.23;;;0.70;;
19733;SDS011;10018;51.230;7.860;2023-11-19T00:17:49;0.97;;;0.70;;
19733;SDS011;10018;51.230;7.860;2023-11-19T00:20:15;2.37;;;0.60;;
19733;SDS011;10018;51.230;7.860;2023-11-19T00:22:42;1.03;;;0.60;;
19733;SDS011;10018;51.230;7.860;2023-11-19T00:25:08;0.97;;;0.60;;
19733;SDS011;10018;51.230;7.860;2023-11-19T00:27:36;0.80;;;0.50;;
19733;SDS011;10018;51.230;7.860;2023-11-19T00:30:05;0.60;;;0.50;;
19733;SDS011;10018;51.230;7.860;2023-11-19T00:32:36;0.90;;;0.43;;
19733;SDS011;10018;51.230;7.860;2023-11-19T00:35:03;0.60;;;0.40;;
19733;SDS011;10018;51.230;7.860;2023-11-19T00:37:29;2.53;;;0.50;;
19733;SDS011;10018;51.230;7.860;2023-11-19T00:39:55;5.73;;;2.27;;
19733;SDS011;10018;51.230;7.860;2023-11-19T00:42:23;2.47;;;1.13;;
19733;SDS011;10018;51.230;7.860;2023-11-19T00:44:49;1.30;;;0.60;;
19733;SDS011;10018;51.230;7.860;2023-11-19T00:47:18;0.60;;;0.40;;
19733;SDS011;10018;51.230;7.860;2023-11-19T00:49:45;0.40;;;0.40;;
19733;SDS011;10018;51.230;7.860;2023-11-19T00:52:13;3.60;;;2.07;;
19733;SDS011;10018;51.230;7.860;2023-11-19T00:54:41;0.60;;;0.50;;
19733;SDS011;10018;51.230;7.860;2023-11-19T00:57:07;0.77;;;0.50;;
19733;SDS011;10018;51.230;7.860;2023-11-19T00:59:32;1.07;;;0.60;;
19733;SDS011;10018;51.230;7.860;2023-11-19T01:01:58;1.70;;;0.60;;
19733;SDS011;10018;51.230;7.860;2023-11-19T01:04:28;1.90;;;0.97;;
19733;SDS011;10018;51.230;7.860;2023-11-19T01:06:54;3.70;;;1.80;;
19733;SDS011;10018;51.230;7.860;2023-11-19T01:09:20;6.50;;;4.17;;
19733;SDS011;10018;51.230;7.860;2023-11-19T01:11:45;2.23;;;1.33;;
19733;SDS011;10018;51.230;7.860;2023-11-19T01:14:11;2.53;;;1.30;;
19733;SDS011;10018;51.230;7.860;2023-11-19T01:16:36;6.50;;;3.07;;
19733;SDS011;10018;51.230;7.860;2023-11-19T01:19:02;4.53;;;1.80;;
19733;SDS011;10018;51.230;7.860;2023-11-19T01:21:30;2.27;;;1.47;;
19733;SDS011;10018;51.230;7.860;2023-11-19T01:23:56;2.33;;;1.30;;
19733;SDS011;10018;51.230;7.860;2023-11-19T01:26:23;1.53;;;1.13;;
19733;SDS011;10018;51.230;7.860;2023-11-19T01:28:48;4.50;;;1.10;;
19733;SDS011;10018;51.230;7.860;2023-11-19T01:31:17;4.10;;;1.10;;
19733;SDS011;10018;51.230;7.860;2023-11-19T01:33:43;1.30;;;0.83;;
19733;SDS011;10018;51.230;7.860;2023-11-19T01:36:08;2.70;;;1.40;;
19733;SDS011;10018;51.230;7.860;2023-11-19T01:38:35;2.57;;;1.10;;
19733;SDS011;10018;51.230;7.860;2023-11-19T01:41:01;1.53;;;0.90;;
19733;SDS011;10018;51.230;7.860;2023-11-19T01:43:34;1.80;;;1.00;;
19733;SDS011;10018;51.230;7.860;2023-11-19T01:46:01;1.00;;;0.87;;
19733;SDS011;10018;51.230;7.860;2023-11-19T01:48:34;1.10;;;0.83;;
19733;SDS011;10018;51.230;7.860;2023-11-19T01:51:01;1.43;;;0.90;;
19733;SDS011;10018;51.230;7.860;2023-11-19T01:53:27;1.77;;;0.80;;
19733;SDS011;10018;51.230;7.860;2023-11-19T01:55:54;1.07;;;0.70;;
19733;SDS011;10018;51.230;7.860;2023-11-19T01:58:20;1.00;;;0.80;;
19733;SDS011;10018;51.230;7.860;2023-11-19T02:00:47;1.07;;;0.67;;
19733;SDS011;10018;51.230;7.860;2023-11-19T02:03:13;0.93;;;0.67;;
19733;SDS011;10018;51.230;7.860;2023-11-19T02:05:39;1.93;;;0.60;;
19733;SDS011;10018;51.230;7.860;2023-11-19T02:08:08;1.30;;;0.80;;
19733;SDS011;10018;51.230;7.860;2023-11-19T02:10:33;1.17;;;0.70;;
19733;SDS011;10018;51.230;7.860;2023-11-19T02:12:59;1.13;;;0.67;;
19733;SDS011;10018;51.230;7.860;2023-11-19T02:15:26;2.23;;;0.77;;
19733;SDS011;10018;51.230;7.860;2023-11-19T02:17:51;1.60;;;0.60;;
19733;SDS011;10018;51.230;7.860;2023-11-19T02:20:17;0.73;;;0.70;;
19733;SDS011;10018;51.230;7.860;2023-11-19T02:22:45;0.73;;;0.60;;
19733;SDS011;10018;51.230;7.860;2023-11-19T02:25:14;0.93;;;0.60;;
19733;SDS011;10018;51.230;7.860;2023-11-19T02:30:23;1.17;;;0.70;;
19733;SDS011;10018;51.230;7.860;2023-11-19T02:32:52;2.60;;;1.00;;
19733;SDS011;10018;51.230;7.860;2023-11-19T02:35:21;4.33;;;1.37;;
19733;SDS011;10018;51.230;7.860;2023-11-19T02:37:47;2.37;;;1.60;;
19733;SDS011;10018;51.230;7.860;2023-11-19T02:40:15;2.90;;;1.40;;
19733;SDS011;10018;51.230;7.860;2023-11-19T02:42:42;6.60;;;1.70;;
19733;SDS011;10018;51.230;7.860;2023-11-19T02:45:08;2.30;;;1.70;;
19733;SDS011;10018;51.230;7.860;2023-11-19T02:47:38;5.13;;;1.87;;
19733;SDS011;10018;51.230;7.860;2023-11-19T02:50:08;4.47;;;2.23;;
19733;SDS011;10018;51.230;7.860;2023-11-19T02:52:42;4.73;;;2.37;;
19733;SDS011;10018;51.230;7.860;2023-11-19T02:55:12;4.60;;;2.20;;
19733;SDS011;10018;51.230;7.860;2023-11-19T02:57:41;7.57;;;2.37;;
19733;SDS011;10018;51.230;7.860;2023-11-19T03:00:17;3.60;;;2.10;;
19733;SDS011;10018;51.230;7.860;2023-11-19T03:02:50;8.00;;;2.30;;
19733;SDS011;10018;51.230;7.860;2023-11-19T03:05:24;8.47;;;2.40;;
19733;SDS011;10018;51.230;7.860;2023-11-19T03:07:51;5.83;;;2.30;;
19733;SDS011;10018;51.230;7.860;2023-11-19T03:10:17;8.23;;;2.60;;
19733;SDS011;10018;51.230;7.860;2023-11-19T03:12:43;6.40;;;2.50;;
19733;SDS011;10018;51.230;7.860;2023-11-19T03:15:10;6.50;;;2.43;;
19733;SDS011;10018;51.230;7.860;2023-11-19T03:17:39;8.23;;;2.63;;
19733;SDS011;10018;51.230;7.860;2023-11-19T03:20:06;8.10;;;2.50;;
19733;SDS011;10018;51.230;7.860;2023-11-19T03:22:42;7.93;;;2.50;;
19733;SDS011;10018;51.230;7.860;2023-11-19T03:25:09;8.00;;;2.33;;
19733;SDS011;10018;51.230;7.860;2023-11-19T03:27:35;8.90;;;2.50;;
19733;SDS011;10018;51.230;7.860;2023-11-19T03:30:02;9.43;;;2.60;;
19733;SDS011;10018;51.230;7.860;2023-11-19T03:32:31;5.90;;;2.13;;
19733;SDS011;10018;51.230;7.860;2023-11-19T03:34:57;8.57;;;2.40;;
19733;SDS011;10018;51.230;7.860;2023-11-19T03:37:24;8.37;;;2.40;;
19733;SDS011;10018;51.230;7.860;2023-11-19T03:39:51;9.87;;;2.57;;
19733;SDS011;10018;51.230;7.860;2023-11-19T03:42:18;8.73;;;2.97;;
19733;SDS011;10018;51.230;7.860;2023-11-19T03:44:45;10.23;;;2.73;;
19733;SDS011;10018;51.230;7.860;2023-11-19T03:47:11;7.57;;;3.00;;
19733;SDS011;10018;51.230;7.860;2023-11-19T03:49:36;11.07;;;3.23;;
19733;SDS011;10018;51.230;7.860;2023-11-19T03:52:02;13.27;;;3.10;;
19733;SDS011;10018;51.230;7.860;2023-11-19T03:54:28;8.30;;;3.30;;
19733;SDS011;10018;51.230;7.860;2023-11-19T03:56:53;11.30;;;3.60;;
19733;SDS011;10018;51.230;7.860;2023-11-19T03:59:22;12.60;;;4.07;;
19733;SDS011;10018;51.230;7.860;2023-11-19T04:01:49;11.57;;;3.30;;
19733;SDS011;10018;51.230;7.860;2023-11-19T04:04:16;15.87;;;3.83;;
19733;SDS011;10018;51.230;7.860;2023-11-19T04:06:41;13.33;;;3.30;;
19733;SDS011;10018;51.230;7.860;2023-11-19T04:09:07;12.83;;;3.17;;
19733;SDS011;10018;51.230;7.860;2023-11-19T04:11:33;9.30;;;3.20;;
19733;SDS011;10018;51.230;7.860;2023-11-19T04:13:58;8.20;;;2.70;;
19733;SDS011;10018;51.230;7.860;2023-11-19T04:16:27;14.67;;;3.20;;
19733;SDS011;10018;51.230;7.860;2023-11-19T04:18:55;10.50;;;3.27;;
19733;SDS011;10018;51.230;7.860;2023-11-19T04:21:21;9.90;;;3.20;;
19733;SDS011;10018;51.230;7.860;2023-11-19T04:23:48;10.63;;;3.07;;
19733;SDS011;10018;51.230;7.860;2023-11-19T04:26:16;11.87;;;2.40;;
19733;SDS011;10018;51.230;7.860;2023-11-19T04:28:42;8.53;;;2.40;;
19733;SDS011;10018;51.230;7.860;2023-11-19T04:31:08;10.23;;;2.87;;
19733;SDS011;10018;51.230;7.860;2023-11-19T04:33:34;9.93;;;2.40;;
19733;SDS011;10018;51.230;7.860;2023-11-19T04:36:00;12.37;;;2.53;;
19733;SDS011;10018;51.230;7.860;2023-11-19T04:38:25;10.53;;;2.50;;
19733;SDS011;10018;51.230;7.860;2023-11-19T04:40:51;11.37;;;2.63;;
19733;SDS011;10018;51.230;7.860;2023-11-19T04:43:17;9.23;;;2.33;;
19733;SDS011;10018;51.230;7.860;2023-11-19T04:45:43;12.87;;;3.10;;
19733;SDS011;10018;51.230;7.860;2023-11-19T04:48:09;9.27;;;2.77;;
19733;SDS011;10018;51.230;7.860;2023-11-19T04:50:34;9.53;;;2.30;;
19733;SDS011;10018;51.230;7.860;2023-11-19T04:53:02;8.60;;;2.40;;
19733;SDS011;10018;51.230;7.860;2023-11-19T04:55:28;7.67;;;2.30;;
19733;SDS011;10018;51.230;7.860;2023-11-19T04:57:54;10.40;;;2.87;;
19733;SDS011;10018;51.230;7.860;2023-11-19T05:00:19;8.40;;;2.50;;
19733;SDS011;10018;51.230;7.860;2023-11-19T05:02:46;11.37;;;3.17;;
19733;SDS011;10018;51.230;7.860;2023-11-19T05:05:12;13.53;;;2.90;;
19733;SDS011;10018;51.230;7.860;2023-11-19T05:07:37;15.27;;;3.13;;
19733;SDS011;10018;51.230;7.860;2023-11-19T05:10:03;18.70;;;3.10;;
19733;SDS011;10018;51.230;7.860;2023-11-19T05:12:30;17.30;;;2.93;;
19733;SDS011;10018;51.230;7.860;2023-11-19T05:14:56;15.17;;;3.20;;
19733;SDS011;10018;51.230;7.860;2023-11-19T05:17:25;15.33;;;3.33;;
19733;SDS011;10018;51.230;7.860;2023-11-19T05:19:50;13.87;;;2.90;;
19733;SDS011;10018;51.230;7.860;2023-11-19T05:22:18;8.57;;;2.80;;
19733;SDS011;10018;51.230;7.860;2023-11-19T05:24:45;12.57;;;2.83;;
19733;SDS011;10018;51.230;7.860;2023-11-19T05:27:14;14.90;;;2.83;;
19733;SDS011;10018;51.230;7.860;2023-11-19T05:29:40;14.00;;;2.97;;
19733;SDS011;10018;51.230;7.860;2023-11-19T05:32:06;11.37;;;2.43;;
19733;SDS011;10018;51.230;7.860;2023-11-19T05:34:32;12.50;;;2.73;;
19733;SDS011;10018;51.230;7.860;2023-11-19T05:36:58;11.00;;;2.60;;
19733;SDS011;10018;51.230;7.860;2023-11-19T05:39:23;17.60;;;3.53;;
19733;SDS011;10018;51.230;7.860;2023-11-19T05:41:49;19.00;;;3.13;;
19733;SDS011;10018;51.230;7.860;2023-11-19T05:44:15;16.13;;;3.23;;
19733;SDS011;10018;51.230;7.860;2023-11-19T05:46:42;17.93;;;4.07;;
19733;SDS011;10018;51.230;7.860;2023-11-19T05:49:11;11.93;;;3.27;;
19733;SDS011;10018;51.230;7.860;2023-11-19T05:51:37;17.17;;;3.27;;
19733;SDS011;10018;51.230;7.860;2023-11-19T05:54:04;25.40;;;6.10;;
19733;SDS011;10018;51.230;7.860;2023-11-19T05:56:31;22.10;;;5.10;;
19733;SDS011;10018;51.230;7.860;2023-11-19T05:58:58;17.40;;;3.90;;
19733;SDS011;10018;51.230;7.860;2023-11-19T06:01:26;18.97;;;3.03;;
19733;SDS011;10018;51.230;7.860;2023-11-19T06:03:51;17.30;;;3.23;;
19733;SDS011;10018;51.230;7.860;2023-11-19T06:06:17;19.10;;;2.70;;
19733;SDS011;10018;51.230;7.860;2023-11-19T06:08:43;23.70;;;4.20;;
19733;SDS011;10018;51.230;7.860;2023-11-19T06:11:09;21.33;;;3.37;;
19733;SDS011;10018;51.230;7.860;2023-11-19T06:13:39;18.60;;;3.23;;
19733;SDS011;10018;51.230;7.860;2023-11-19T06:16:05;15.40;;;3.00;;
19733;SDS011;10018;51.230;7.860;2023-11-19T06:18:31;25.67;;;3.43;;
19733;SDS011;10018;51.230;7.860;2023-11-19T06:20:57;21.20;;;3.70;;
19733;SDS011;10018;51.230;7.860;2023-11-19T06:23:25;15.70;;;4.13;;
19733;SDS011;10018;51.230;7.860;2023-11-19T06:25:50;14.97;;;2.93;;
19733;SDS011;10018;51.230;7.860;2023-11-19T06:28:21;20.30;;;3.60;;
19733;SDS011;10018;51.230;7.860;2023-11-19T06:30:46;20.67;;;5.27;;
19733;SDS011;10018;51.230;7.860;2023-11-19T06:33:14;20.20;;;3.70;;
19733;SDS011;10018;51.230;7.860;2023-11-19T06:35:42;26.83;;;7.87;;
19733;SDS011;10018;51.230;7.860;2023-11-19T06:38:07;18.13;;;5.27;;
19733;SDS011;10018;51.230;7.860;2023-11-19T06:40:33;18.33;;;4.30;;
19733;SDS011;10018;51.230;7.860;2023-11-19T06:43:01;15.73;;;3.33;;
19733;SDS011;10018;51.230;7.860;2023-11-19T06:45:33;17.10;;;3.83;;
19733;SDS011;10018;51.230;7.860;2023-11-19T06:48:02;18.80;;;3.83;;
19733;SDS011;10018;51.230;7.860;2023-11-19T06:50:30;17.00;;;3.50;;
19733;SDS011;10018;51.230;7.860;2023-11-19T06:52:56;23.47;;;4.13;;
19733;SDS011;10018;51.230;7.860;2023-11-19T06:55:22;20.97;;;4.27;;
19733;SDS011;10018;51.230;7.860;2023-11-19T06:57:48;19.77;;;3.90;;
19733;SDS011;10018;51.230;7.860;2023-11-19T07:00:13;16.93;;;3.87;;
19733;SDS011;10018;51.230;7.860;2023-11-19T07:02:39;18.90;;;4.10;;
19733;SDS011;10018;51.230;7.860;2023-11-19T07:05:05;21.87;;;4.20;;
19733;SDS011;10018;51.230;7.860;2023-11-19T07:07:35;26.27;;;4.13;;
19733;SDS011;10018;51.230;7.860;2023-11-19T07:10:01;18.30;;;3.40;;
19733;SDS011;10018;51.230;7.860;2023-11-19T07:12:28;23.87;;;3.87;;
19733;SDS011;10018;51.230;7.860;2023-11-19T07:15:00;19.07;;;3.43;;
19733;SDS011;10018;51.230;7.860;2023-11-19T07:17:28;28.30;;;4.00;;
19733;SDS011;10018;51.230;7.860;2023-11-19T07:19:56;22.77;;;3.73;;
19733;SDS011;10018;51.230;7.860;2023-11-19T07:22:24;21.63;;;3.53;;
19733;SDS011;10018;51.230;7.860;2023-11-19T07:24:50;20.23;;;4.10;;
19733;SDS011;10018;51.230;7.860;2023-11-19T07:27:16;16.57;;;3.20;;
19733;SDS011;10018;51.230;7.860;2023-11-19T07:29:43;19.77;;;3.73;;
19733;SDS011;10018;51.230;7.860;2023-11-19T07:32:11;17.17;;;3.73;;
19733;SDS011;10018;51.230;7.860;2023-11-19T07:34:40;16.73;;;2.97;;
19733;SDS011;10018;51.230;7.860;2023-11-19T07:37:06;19.57;;;3.50;;
19733;SDS011;10018;51.230;7.860;2023-11-19T07:39:32;24.20;;;3.77;;
19733;SDS011;10018;51.230;7.860;2023-11-19T07:42:01;18.67;;;3.60;;
19733;SDS011;10018;51.230;7.860;2023-11-19T07:44:29;22.33;;;3.50;;
19733;SDS011;10018;51.230;7.860;2023-11-19T07:46:54;29.27;;;3.70;;
19733;SDS011;10018;51.230;7.860;2023-11-19T07:49:20;20.60;;;4.00;;
19733;SDS011;10018;51.230;7.860;2023-11-19T07:51:45;23.47;;;3.87;;
19733;SDS011;10018;51.230;7.860;2023-11-19T07:54:11;21.33;;;3.87;;
19733;SDS011;10018;51.230;7.860;2023-11-19T07:56:37;20.00;;;3.37;;
19733;SDS011;10018;51.230;7.860;2023-11-19T07:59:02;19.90;;;3.23;;
19733;SDS011;10018;51.230;7.860;2023-11-19T08:01:28;22.13;;;3.73;;
19733;SDS011;10018;51.230;7.860;2023-11-19T08:03:54;20.93;;;3.70;;
19733;SDS011;10018;51.230;7.860;2023-11-19T08:06:19;21.90;;;3.53;;
19733;SDS011;10018;51.230;7.860;2023-11-19T08:08:48;18.00;;;3.57;;
19733;SDS011;10018;51.230;7.860;2023-11-19T08:11:14;20.43;;;3.63;;
19733;SDS011;10018;51.230;7.860;2023-11-19T08:13:40;20.37;;;3.07;;
19733;SDS011;10018;51.230;7.860;2023-11-19T08:16:05;22.67;;;3.63;;
19733;SDS011;10018;51.230;7.860;2023-11-19T08:18:31;18.90;;;3.80;;
19733;SDS011;10018;51.230;7.860;2023-11-19T08:20:57;30.10;;;4.40;;
19733;SDS011;10018;51.230;7.860;2023-11-19T08:23:24;26.27;;;4.03;;
19733;SDS011;10018;51.230;7.860;2023-11-19T08:25:50;20.43;;;3.80;;
19733;SDS011;10018;51.230;7.860;2023-11-19T08:28:16;20.83;;;3.50;;
19733;SDS011;10018;51.230;7.860;2023-11-19T08:30:41;22.20;;;4.27;;
19733;SDS011;10018;51.230;7.860;2023-11-19T08:33:09;21.03;;;3.80;;
19733;SDS011;10018;51.230;7.860;2023-11-19T08:35:34;17.47;;;3.90;;
19733;SDS011;10018;51.230;7.860;2023-11-19T08:38:00;20.70;;;3.67;;
19733;SDS011;10018;51.230;7.860;2023-11-19T08:40:26;23.07;;;3.83;;
19733;SDS011;10018;51.230;7.860;2023-11-19T08:42:52;23.53;;;3.43;;
19733;SDS011;10018;51.230;7.860;2023-11-19T08:45:18;26.83;;;3.90;;
19733;SDS011;10018;51.230;7.860;2023-11-19T08:47:44;22.00;;;3.77;;
19733;SDS011;10018;51.230;7.860;2023-11-19T08:50:10;31.67;;;4.57;;
19733;SDS011;10018;51.230;7.860;2023-11-19T08:52:36;19.07;;;3.37;;
19733;SDS011;10018;51.230;7.860;2023-11-19T08:55:02;22.63;;;3.60;;
19733;SDS011;10018;51.230;7.860;2023-11-19T08:57:31;22.07;;;3.87;;
19733;SDS011;10018;51.230;7.860;2023-11-19T08:59:57;26.20;;;3.83;;
19733;SDS011;10018;51.230;7.860;2023-11-19T09:02:24;21.33;;;4.20;;
19733;SDS011;10018;51.230;7.860;2023-11-19T09:04:52;26.77;;;4.27;;
19733;SDS011;10018;51.230;7.860;2023-11-19T09:07:17;22.00;;;4.07;;
19733;SDS011;10018;51.230;7.860;2023-11-19T09:09:43;20.90;;;3.50;;
19733;SDS011;10018;51.230;7.860;2023-11-19T09:12:08;24.53;;;4.50;;
19733;SDS011;10018;51.230;7.860;2023-11-19T09:14:34;28.10;;;6.20;;
19733;SDS011;10018;51.230;7.860;2023-11-19T09:16:59;22.50;;;4.27;;
19733;SDS011;10018;51.230;7.860;2023-11-19T09:19:27;22.40;;;4.50;;
19733;SDS011;10018;51.230;7.860;2023-11-19T09:21:56;28.33;;;5.43;;
19733;SDS011;10018;51.230;7.860;2023-11-19T09:24:22;20.03;;;3.47;;
19733;SDS011;10018;51.230;7.860;2023-11-19T09:26:47;25.63;;;4.00;;
19733;SDS011;10018;51.230;7.860;2023-11-19T09:29:13;25.57;;;3.80;;
19733;SDS011;10018;51.230;7.860;2023-11-19T09:31:39;22.20;;;4.00;;
19733;SDS011;10018;51.230;7.860;2023-11-19T09:34:05;28.03;;;4.10;;
19733;SDS011;10018;51.230;7.860;2023-11-19T09:36:31;21.23;;;3.77;;
19733;SDS011;10018;51.230;7.860;2023-11-19T09:38:56;27.17;;;4.33;;
19733;SDS011;10018;51.230;7.860;2023-11-19T09:41:23;21.77;;;4.10;;
19733;SDS011;10018;51.230;7.860;2023-11-19T09:43:52;22.40;;;4.10;;
19733;SDS011;10018;51.230;7.860;2023-11-19T09:46:20;22.93;;;4.10;;
19733;SDS011;10018;51.230;7.860;2023-11-19T09:48:49;27.33;;;3.73;;
19733;SDS011;10018;51.230;7.860;2023-11-19T09:51:21;22.03;;;4.43;;
19733;SDS011;10018;51.230;7.860;2023-11-19T09:53:47;26.03;;;5.10;;
19733;SDS011;10018;51.230;7.860;2023-11-19T09:56:14;28.23;;;4.20;;
19733;SDS011;10018;51.230;7.860;2023-11-19T09:58:41;22.53;;;3.53;;
19733;SDS011;10018;51.230;7.860;2023-11-19T10:01:07;27.77;;;4.13;;
19733;SDS011;10018;51.230;7.860;2023-11-19T10:03:35;27.17;;;4.70;;
19733;SDS011;10018;51.230;7.860;2023-11-19T10:06:08;23.07;;;3.93;;
19733;SDS011;10018;51.230;7.860;2023-11-19T10:08:36;26.27;;;4.50;;
19733;SDS011;10018;51.230;7.860;2023-11-19T10:11:04;23.07;;;4.40;;
19733;SDS011;10018;51.230;7.860;2023-11-19T10:13:30;24.13;;;4.23;;
19733;SDS011;10018;51.230;7.860;2023-11-19T10:15:56;21.07;;;3.83;;
19733;SDS011;10018;51.230;7.860;2023-11-19T10:18:27;22.60;;;3.63;;
19733;SDS011;10018;51.230;7.860;2023-11-19T10:20:53;22.60;;;3.50;;
19733;SDS011;10018;51.230;7.860;2023-11-19T10:23:20;18.83;;;3.70;;
19733;SDS011;10018;51.230;7.860;2023-11-19T10:25:48;25.30;;;4.33;;
19733;SDS011;10018;51.230;7.860;2023-11-19T10:28:17;26.63;;;3.77;;
19733;SDS011;10018;51.230;7.860;2023-11-19T10:30:48;25.70;;;3.60;;
19733;SDS011;10018;51.230;7.860;2023-11-19T10:33:14;22.80;;;3.77;;
19733;SDS011;10018;51.230;7.860;2023-11-19T10:35:53;19.97;;;4.10;;
19733;SDS011;10018;51.230;7.860;2023-11-19T10:38:21;26.00;;;4.10;;
19733;SDS011;10018;51.230;7.860;2023-11-19T10:40:50;23.83;;;3.87;;
19733;SDS011;10018;51.230;7.860;2023-11-19T10:43:16;22.53;;;3.90;;
19733;SDS011;10018;51.230;7.860;2023-11-19T10:45:42;22.57;;;3.93;;
19733;SDS011;10018;51.230;7.860;2023-11-19T10:48:11;31.23;;;4.33;;
19733;SDS011;10018;51.230;7.860;2023-11-19T10:50:38;23.03;;;3.87;;
19733;SDS011;10018;51.230;7.860;2023-11-19T10:53:05;24.50;;;4.57;;
19733;SDS011;10018;51.230;7.860;2023-11-19T10:55:35;26.27;;;4.63;;
19733;SDS011;10018;51.230;7.860;2023-11-19T10:58:04;29.13;;;3.93;;
19733;SDS011;10018;51.230;7.860;2023-11-19T11:00:52;25.40;;;4.17;;
19733;SDS011;10018;51.230;7.860;2023-11-19T11:03:24;20.83;;;3.50;;
19733;SDS011;10018;51.230;7.860;2023-11-19T11:05:52;22.23;;;4.03;;
19733;SDS011;10018;51.230;7.860;2023-11-19T11:08:21;24.43;;;4.20;;
19733;SDS011;10018;51.230;7.860;2023-11-19T11:10:52;21.73;;;4.30;;
19733;SDS011;10018;51.230;7.860;2023-11-19T11:13:22;29.67;;;4.70;;
19733;SDS011;10018;51.230;7.860;2023-11-19T11:15:52;26.40;;;3.90;;
19733;SDS011;10018;51.230;7.860;2023-11-19T11:18:21;23.83;;;3.60;;
19733;SDS011;10018;51.230;7.860;2023-11-19T11:20:47;32.70;;;4.30;;
19733;SDS011;10018;51.230;7.860;2023-11-19T11:31:27;22.50;;;4.10;;
19733;SDS011;10018;51.230;7.860;2023-11-19T11:36:46;21.53;;;4.40;;
19733;SDS011;10018;51.230;7.860;2023-11-19T11:39:17;21.90;;;4.13;;
19733;SDS011;10018;51.230;7.860;2023-11-19T11:41:47;28.50;;;4.50;;
19733;SDS011;10018;51.230;7.860;2023-11-19T11:44:12;24.30;;;4.80;;
19733;SDS011;10018;51.230;7.860;2023-11-19T11:49:05;23.57;;;4.27;;
19733;SDS011;10018;51.230;7.860;2023-11-19T12:02:09;18.33;;;4.22;;
19733;SDS011;10018;51.230;7.860;2023-11-19T12:04:40;25.17;;;4.10;;
19733;SDS011;10018;51.230;7.860;2023-11-19T12:07:06;21.13;;;4.53;;
19733;SDS011;10018;51.230;7.860;2023-11-19T12:09:42;21.73;;;3.53;;
19733;SDS011;10018;51.230;7.860;2023-11-19T12:12:27;23.10;;;4.10;;
19733;SDS011;10018;51.230;7.860;2023-11-19T12:20:03;17.63;;;3.70;;
19733;SDS011;10018;51.230;7.860;2023-11-19T12:22:36;20.80;;;4.23;;
19733;SDS011;10018;51.230;7.860;2023-11-19T12:25:06;18.60;;;3.40;;
19733;SDS011;10018;51.230;7.860;2023-11-19T12:27:34;20.53;;;3.33;;
19733;SDS011;10018;51.230;7.860;2023-11-19T12:30:01;23.60;;;3.90;;
19733;SDS011;10018;51.230;7.860;2023-11-19T12:32:37;20.77;;;3.93;;
19733;SDS011;10018;51.230;7.860;2023-11-19T12:35:07;24.73;;;3.97;;
19733;SDS011;10018;51.230;7.860;2023-11-19T12:37:43;17.93;;;3.43;;
19733;SDS011;10018;51.230;7.860;2023-11-19T12:40:17;14.77;;;3.40;;
19733;SDS011;10018;51.230;7.860;2023-11-19T12:42:43;18.43;;;3.33;;
19733;SDS011;10018;51.230;7.860;2023-11-19T12:45:10;19.90;;;4.67;;
19733;SDS011;10018;51.230;7.860;2023-11-19T12:47:36;20.03;;;3.40;;
19733;SDS011;10018;51.230;7.860;2023-11-19T12:50:02;19.40;;;3.30;;
19733;SDS011;10018;51.230;7.860;2023-11-19T12:52:29;15.33;;;3.40;;
19733;SDS011;10018;51.230;7.860;2023-11-19T12:54:55;20.03;;;3.03;;
19733;SDS011;10018;51.230;7.860;2023-11-19T12:57:35;16.97;;;4.50;;
19733;SDS011;10018;51.230;7.860;2023-11-19T13:00:05;18.37;;;3.23;;
19733;SDS011;10018;51.230;7.860;2023-11-19T13:02:47;22.93;;;3.30;;
19733;SDS011;10018;51.230;7.860;2023-11-19T13:05:24;17.77;;;3.43;;
19733;SDS011;10018;51.230;7.860;2023-11-19T13:08:16;21.40;;;6.30;;
19733;SDS011;10018;51.230;7.860;2023-11-19T13:10:50;16.63;;;3.43;;
19733;SDS011;10018;51.230;7.860;2023-11-19T13:13:17;17.53;;;3.13;;
19733;SDS011;10018;51.230;7.860;2023-11-19T13:15:42;19.87;;;4.80;;
19733;SDS011;10018;51.230;7.860;2023-11-19T13:18:11;24.33;;;3.50;;
19733;SDS011;10018;51.230;7.860;2023-11-19T13:20:37;22.83;;;3.97;;
19733;SDS011;10018;51.230;7.860;2023-11-19T13:23:04;19.63;;;3.43;;
19733;SDS011;10018;51.230;7.860;2023-11-19T13:25:31;16.47;;;3.07;;
19733;SDS011;10018;51.230;7.860;2023-11-19T13:27:58;22.63;;;4.27;;
19733;SDS011;10018;51.230;7.860;2023-11-19T13:30:24;13.67;;;2.90;;
19733;SDS011;10018;51.230;7.860;2023-11-19T13:32:50;21.93;;;3.47;;
19733;SDS011;10018;51.230;7.860;2023-11-19T13:35:19;18.83;;;3.13;;
19733;SDS011;10018;51.230;7.860;2023-11-19T13:37:45;19.93;;;3.77;;
19733;SDS011;10018;51.230;7.860;2023-11-19T13:40:13;19.40;;;3.20;;
19733;SDS011;10018;51.230;7.860;2023-11-19T13:42:43;18.10;;;3.50;;
19733;SDS011;10018;51.230;7.860;2023-11-19T13:45:09;16.47;;;3.17;;
19733;SDS011;10018;51.230;7.860;2023-11-19T13:47:40;13.60;;;2.73;;
19733;SDS011;10018;51.230;7.860;2023-11-19T13:50:08;16.93;;;2.90;;
19733;SDS011;10018;51.230;7.860;2023-11-19T13:52:38;18.47;;;3.87;;
19733;SDS011;10018;51.230;7.860;2023-11-19T13:55:08;15.27;;;3.50;;
19733;SDS011;10018;51.230;7.860;2023-11-19T13:57:35;15.73;;;3.93;;
19733;SDS011;10018;51.230;7.860;2023-11-19T14:00:02;21.07;;;5.17;;
19733;SDS011;10018;51.230;7.860;2023-11-19T14:02:32;19.00;;;3.53;;
19733;SDS011;10018;51.230;7.860;2023-11-19T14:04:59;15.33;;;3.37;;
19733;SDS011;10018;51.230;7.860;2023-11-19T14:07:24;18.10;;;3.70;;
19733;SDS011;10018;51.230;7.860;2023-11-19T14:09:53;17.83;;;4.17;;
19733;SDS011;10018;51.230;7.860;2023-11-19T14:12:19;23.27;;;3.77;;
19733;SDS011;10018;51.230;7.860;2023-11-19T14:14:45;17.10;;;4.17;;
19733;SDS011;10018;51.230;7.860;2023-11-19T14:17:10;14.97;;;3.40;;
19733;SDS011;10018;51.230;7.860;2023-11-19T14:19:36;18.73;;;4.30;;
19733;SDS011;10018;51.230;7.860;2023-11-19T14:22:04;16.20;;;3.90;;
19733;SDS011;10018;51.230;7.860;2023-11-19T14:24:30;19.17;;;4.33;;
19733;SDS011;10018;51.230;7.860;2023-11-19T14:26:55;17.93;;;3.33;;
19733;SDS011;10018;51.230;7.860;2023-11-19T14:29:23;13.00;;;3.17;;
19733;SDS011;10018;51.230;7.860;2023-11-19T14:31:53;17.63;;;3.73;;
19733;SDS011;10018;51.230;7.860;2023-11-19T14:34:19;19.17;;;3.37;;
19733;SDS011;10018;51.230;7.860;2023-11-19T14:36:45;18.97;;;3.43;;
19733;SDS011;10018;51.230;7.860;2023-11-19T14:39:11;21.13;;;3.93;;
19733;SDS011;10018;51.230;7.860;2023-11-19T14:41:36;19.00;;;3.40;;
19733;SDS011;10018;51.230;7.860;2023-11-19T14:44:02;20.47;;;3.40;;
19733;SDS011;10018;51.230;7.860;2023-11-19T14:46:28;17.50;;;3.40;;
19733;SDS011;10018;51.230;7.860;2023-11-19T14:48:54;16.63;;;3.03;;
19733;SDS011;10018;51.230;7.860;2023-11-19T14:51:19;13.47;;;3.23;;
19733;SDS011;10018;51.230;7.860;2023-11-19T14:53:45;13.83;;;3.13;;
19733;SDS011;10018;51.230;7.860;2023-11-19T14:56:11;17.37;;;2.87;;
19733;SDS011;10018;51.230;7.860;2023-11-19T14:58:41;15.03;;;3.80;;
19733;SDS011;10018;51.230;7.860;2023-11-19T15:01:12;15.67;;;3.90;;
19733;SDS011;10018;51.230;7.860;2023-11-19T15:03:39;18.50;;;4.67;;
19733;SDS011;10018;51.230;7.860;2023-11-19T15:06:05;34.07;;;5.17;;
19733;SDS011;10018;51.230;7.860;2023-11-19T15:08:33;17.53;;;3.57;;
19733;SDS011;10018;51.230;7.860;2023-11-19T15:10:59;19.20;;;3.30;;